sensor_id;sensor_type;location;lat;lon;timestamp;P1;durP1;ratioP1;P2;durP2;ratioP2
23155;SDS011;11746;50.876;4.246;2024-03-23T00:52:58;6.97;;;3.10;;
23155;SDS011;11746;50.876;4.246;2024-03-23T00:55:24;6.70;;;3.17;;
23155;SDS011;11746;50.876;4.246;2024-03-23T00:57:52;6.82;;;3.15;;
23155;SDS011;11746;50.876;4.246;2024-03-23T01:00:18;5.43;;;2.80;;
23155;SDS011;11746;50.876;4.246;2024-03-23T01:02:46;5.53;;;2.78;;
23155;SDS011;11746;50.876;4.246;2024-03-23T01:05:14;10.25;;;3.88;;
23155;SDS011;11746;50.876;4.246;2024-03-23T01:07:39;9.63;;;3.35;;
23155;SDS011;11746;50.876;4.246;2024-03-23T01:10:05;5.90;;;3.17;;
23155;SDS011;11746;50.876;4.246;2024-03-23T01:12:31;10.38;;;3.67;;
23155;SDS011;11746;50.876;4.246;2024-03-23T01:14:56;8.50;;;3.22;;
23155;SDS011;11746;50.876;4.246;2024-03-23T01:17:22;6.95;;;3.38;;
23155;SDS011;11746;50.876;4.246;2024-03-23T01:19:48;8.00;;;3.60;;
23155;SDS011;11746;50.876;4.246;2024-03-23T01:22:15;8.57;;;3.92;;
23155;SDS011;11746;50.876;4.246;2024-03-23T01:24:41;8.65;;;3.65;;
23155;SDS011;11746;50.876;4.246;2024-03-23T01:27:06;7.18;;;3.40;;
23155;SDS011;11746;50.876;4.246;2024-03-23T01:29:33;7.85;;;3.70;;
23155;SDS011;11746;50.876;4.246;2024-03-23T01:31:59;7.32;;;3.63;;
23155;SDS011;11746;50.876;4.246;2024-03-23T01:34:25;8.00;;;3.78;;
23155;SDS011;11746;50.876;4.246;2024-03-23T01:36:50;8.95;;;3.55;;
23155;SDS011;11746;50.876;4.246;2024-03-23T01:39:18;10.55;;;3.47;;
23155;SDS011;11746;50.876;4.246;2024-03-23T01:41:44;10.95;;;3.80;;
23155;SDS011;11746;50.876;4.246;2024-03-23T01:44:10;8.93;;;3.80;;
23155;SDS011;11746;50.876;4.246;2024-03-23T01:46:36;10.18;;;4.40;;
23155;SDS011;11746;50.876;4.246;2024-03-23T01:49:02;10.77;;;4.07;;
23155;SDS011;11746;50.876;4.246;2024-03-23T01:51:29;7.47;;;3.33;;
23155;SDS011;11746;50.876;4.246;2024-03-23T01:53:55;8.75;;;3.20;;
23155;SDS011;11746;50.876;4.246;2024-03-23T01:56:22;10.90;;;4.00;;
23155;SDS011;11746;50.876;4.246;2024-03-23T01:58:47;11.25;;;4.43;;
23155;SDS011;11746;50.876;4.246;2024-03-23T02:01:13;11.27;;;4.20;;
23155;SDS011;11746;50.876;4.246;2024-03-23T02:03:38;12.20;;;4.85;;
23155;SDS011;11746;50.876;4.246;2024-03-23T02:06:04;11.90;;;4.50;;
23155;SDS011;11746;50.876;4.246;2024-03-23T02:08:32;10.85;;;4.78;;
23155;SDS011;11746;50.876;4.246;2024-03-23T02:10:58;10.07;;;4.88;;
23155;SDS011;11746;50.876;4.246;2024-03-23T02:13:26;18.00;;;5.75;;
23155;SDS011;11746;50.876;4.246;2024-03-23T02:15:52;14.35;;;5.72;;
23155;SDS011;11746;50.876;4.246;2024-03-23T02:18:17;18.25;;;6.28;;
23155;SDS011;11746;50.876;4.246;2024-03-23T02:20:45;18.17;;;6.55;;
23155;SDS011;11746;50.876;4.246;2024-03-23T02:23:14;17.92;;;7.22;;
23155;SDS011;11746;50.876;4.246;2024-03-23T02:25:43;15.93;;;7.82;;
23155;SDS011;11746;50.876;4.246;2024-03-23T02:28:09;19.38;;;7.63;;
23155;SDS011;11746;50.876;4.246;2024-03-23T02:30:37;16.27;;;7.80;;
23155;SDS011;11746;50.876;4.246;2024-03-23T02:33:03;14.18;;;7.57;;
23155;SDS011;11746;50.876;4.246;2024-03-23T02:35:29;19.15;;;7.90;;
23155;SDS011;11746;50.876;4.246;2024-03-23T02:37:57;17.80;;;7.70;;
23155;SDS011;11746;50.876;4.246;2024-03-23T02:40:23;19.00;;;7.43;;
23155;SDS011;11746;50.876;4.246;2024-03-23T02:42:49;21.08;;;8.32;;
23155;SDS011;11746;50.876;4.246;2024-03-23T02:45:15;21.00;;;8.73;;
23155;SDS011;11746;50.876;4.246;2024-03-23T02:47:41;22.25;;;8.70;;
23155;SDS011;11746;50.876;4.246;2024-03-23T02:50:07;22.73;;;9.27;;
23155;SDS011;11746;50.876;4.246;2024-03-23T02:52:33;17.77;;;8.48;;
23155;SDS011;11746;50.876;4.246;2024-03-23T02:55:02;16.20;;;8.68;;
23155;SDS011;11746;50.876;4.246;2024-03-23T02:57:30;18.58;;;8.65;;
23155;SDS011;11746;50.876;4.246;2024-03-23T02:59:56;17.30;;;8.27;;
23155;SDS011;11746;50.876;4.246;2024-03-23T03:02:26;19.48;;;8.85;;
23155;SDS011;11746;50.876;4.246;2024-03-23T03:04:52;17.05;;;8.10;;
23155;SDS011;11746;50.876;4.246;2024-03-23T03:07:22;17.45;;;8.27;;
23155;SDS011;11746;50.876;4.246;2024-03-23T03:09:50;18.65;;;8.50;;
23155;SDS011;11746;50.876;4.246;2024-03-23T03:12:20;22.73;;;9.32;;
23155;SDS011;11746;50.876;4.246;2024-03-23T03:14:46;19.27;;;7.95;;
23155;SDS011;11746;50.876;4.246;2024-03-23T03:17:12;23.08;;;8.45;;
23155;SDS011;11746;50.876;4.246;2024-03-23T03:19:38;23.23;;;9.63;;
23155;SDS011;11746;50.876;4.246;2024-03-23T03:22:08;15.15;;;7.50;;
23155;SDS011;11746;50.876;4.246;2024-03-23T03:24:36;23.08;;;7.72;;
23155;SDS011;11746;50.876;4.246;2024-03-23T03:27:04;16.13;;;7.75;;
23155;SDS011;11746;50.876;4.246;2024-03-23T03:29:32;18.05;;;8.85;;
23155;SDS011;11746;50.876;4.246;2024-03-23T03:32:00;19.02;;;8.55;;
23155;SDS011;11746;50.876;4.246;2024-03-23T03:34:27;20.67;;;8.52;;
23155;SDS011;11746;50.876;4.246;2024-03-23T03:36:53;21.88;;;8.27;;
23155;SDS011;11746;50.876;4.246;2024-03-23T03:39:19;21.27;;;9.20;;
23155;SDS011;11746;50.876;4.246;2024-03-23T03:41:45;21.50;;;8.95;;
23155;SDS011;11746;50.876;4.246;2024-03-23T03:44:10;21.25;;;9.18;;
23155;SDS011;11746;50.876;4.246;2024-03-23T03:46:38;18.60;;;9.25;;
23155;SDS011;11746;50.876;4.246;2024-03-23T03:49:04;16.90;;;8.77;;
23155;SDS011;11746;50.876;4.246;2024-03-23T03:51:30;18.55;;;8.60;;
23155;SDS011;11746;50.876;4.246;2024-03-23T03:53:58;19.67;;;8.73;;
23155;SDS011;11746;50.876;4.246;2024-03-23T03:56:25;16.55;;;8.18;;
23155;SDS011;11746;50.876;4.246;2024-03-23T03:58:56;18.55;;;8.23;;
23155;SDS011;11746;50.876;4.246;2024-03-23T04:01:24;21.77;;;8.75;;
23155;SDS011;11746;50.876;4.246;2024-03-23T04:03:51;16.33;;;8.00;;
23155;SDS011;11746;50.876;4.246;2024-03-23T04:06:20;19.80;;;8.15;;
23155;SDS011;11746;50.876;4.246;2024-03-23T04:08:46;16.80;;;7.70;;
23155;SDS011;11746;50.876;4.246;2024-03-23T04:11:11;15.43;;;7.50;;
23155;SDS011;11746;50.876;4.246;2024-03-23T04:13:37;16.48;;;7.90;;
23155;SDS011;11746;50.876;4.246;2024-03-23T04:16:03;16.48;;;7.07;;
23155;SDS011;11746;50.876;4.246;2024-03-23T04:18:31;19.80;;;7.47;;
23155;SDS011;11746;50.876;4.246;2024-03-23T04:20:57;15.15;;;7.15;;
23155;SDS011;11746;50.876;4.246;2024-03-23T04:23:25;15.43;;;7.53;;
23155;SDS011;11746;50.876;4.246;2024-03-23T04:25:53;17.23;;;7.57;;
23155;SDS011;11746;50.876;4.246;2024-03-23T04:28:18;17.70;;;6.75;;
23155;SDS011;11746;50.876;4.246;2024-03-23T04:30:44;12.70;;;5.97;;
23155;SDS011;11746;50.876;4.246;2024-03-23T04:33:10;18.33;;;6.88;;
23155;SDS011;11746;50.876;4.246;2024-03-23T04:35:35;14.70;;;6.60;;
23155;SDS011;11746;50.876;4.246;2024-03-23T04:38:04;13.48;;;6.50;;
23155;SDS011;11746;50.876;4.246;2024-03-23T04:40:29;15.60;;;6.40;;
23155;SDS011;11746;50.876;4.246;2024-03-23T04:42:55;15.68;;;6.10;;
23155;SDS011;11746;50.876;4.246;2024-03-23T04:45:23;14.40;;;6.55;;
23155;SDS011;11746;50.876;4.246;2024-03-23T04:47:53;12.13;;;5.53;;
23155;SDS011;11746;50.876;4.246;2024-03-23T04:50:19;12.82;;;5.38;;
23155;SDS011;11746;50.876;4.246;2024-03-23T04:52:44;10.73;;;5.90;;
23155;SDS011;11746;50.876;4.246;2024-03-23T04:55:10;11.80;;;5.22;;
23155;SDS011;11746;50.876;4.246;2024-03-23T04:57:36;18.17;;;6.18;;
23155;SDS011;11746;50.876;4.246;2024-03-23T05:00:02;12.38;;;4.95;;
23155;SDS011;11746;50.876;4.246;2024-03-23T05:02:37;12.48;;;4.88;;
23155;SDS011;11746;50.876;4.246;2024-03-23T05:05:05;12.18;;;4.53;;
23155;SDS011;11746;50.876;4.246;2024-03-23T05:07:32;13.88;;;5.05;;
23155;SDS011;11746;50.876;4.246;2024-03-23T05:10:00;12.15;;;4.50;;
23155;SDS011;11746;50.876;4.246;2024-03-23T05:12:25;14.30;;;5.32;;
23155;SDS011;11746;50.876;4.246;2024-03-23T05:14:51;13.23;;;5.10;;
23155;SDS011;11746;50.876;4.246;2024-03-23T05:17:17;11.20;;;5.20;;
23155;SDS011;11746;50.876;4.246;2024-03-23T05:19:43;12.13;;;5.40;;
23155;SDS011;11746;50.876;4.246;2024-03-23T05:22:11;14.32;;;5.80;;
23155;SDS011;11746;50.876;4.246;2024-03-23T05:24:36;13.38;;;5.93;;
23155;SDS011;11746;50.876;4.246;2024-03-23T05:27:04;14.30;;;6.55;;
23155;SDS011;11746;50.876;4.246;2024-03-23T05:29:31;15.05;;;5.28;;
23155;SDS011;11746;50.876;4.246;2024-03-23T05:31:56;13.98;;;5.32;;
23155;SDS011;11746;50.876;4.246;2024-03-23T05:34:27;15.18;;;5.63;;
23155;SDS011;11746;50.876;4.246;2024-03-23T05:36:54;13.38;;;5.80;;
23155;SDS011;11746;50.876;4.246;2024-03-23T05:39:19;18.15;;;5.43;;
23155;SDS011;11746;50.876;4.246;2024-03-23T05:41:47;9.02;;;5.00;;
23155;SDS011;11746;50.876;4.246;2024-03-23T05:44:13;12.05;;;4.53;;
23155;SDS011;11746;50.876;4.246;2024-03-23T05:46:40;12.52;;;4.63;;
23155;SDS011;11746;50.876;4.246;2024-03-23T05:49:06;14.98;;;4.60;;
23155;SDS011;11746;50.876;4.246;2024-03-23T05:51:31;13.50;;;4.30;;
23155;SDS011;11746;50.876;4.246;2024-03-23T05:53:59;12.30;;;3.95;;
23155;SDS011;11746;50.876;4.246;2024-03-23T05:56:27;11.85;;;3.90;;
23155;SDS011;11746;50.876;4.246;2024-03-23T05:58:53;12.55;;;3.70;;
23155;SDS011;11746;50.876;4.246;2024-03-23T06:01:18;12.73;;;3.20;;
23155;SDS011;11746;50.876;4.246;2024-03-23T06:03:44;10.55;;;3.03;;
23155;SDS011;11746;50.876;4.246;2024-03-23T06:06:10;11.02;;;2.90;;
23155;SDS011;11746;50.876;4.246;2024-03-23T06:08:38;15.10;;;3.55;;
23155;SDS011;11746;50.876;4.246;2024-03-23T06:11:04;9.30;;;3.08;;
23155;SDS011;11746;50.876;4.246;2024-03-23T06:13:33;14.93;;;3.80;;
23155;SDS011;11746;50.876;4.246;2024-03-23T06:16:00;11.75;;;3.97;;
23155;SDS011;11746;50.876;4.246;2024-03-23T06:18:26;13.48;;;3.00;;
23155;SDS011;11746;50.876;4.246;2024-03-23T06:20:51;13.05;;;2.80;;
23155;SDS011;11746;50.876;4.246;2024-03-23T06:23:17;13.05;;;2.67;;
23155;SDS011;11746;50.876;4.246;2024-03-23T06:25:45;12.32;;;3.22;;
23155;SDS011;11746;50.876;4.246;2024-03-23T06:28:11;12.88;;;3.03;;
23155;SDS011;11746;50.876;4.246;2024-03-23T06:30:37;11.93;;;2.70;;
23155;SDS011;11746;50.876;4.246;2024-03-23T06:33:05;13.82;;;2.72;;
23155;SDS011;11746;50.876;4.246;2024-03-23T06:39:33;11.35;;;3.00;;
23155;SDS011;11746;50.876;4.246;2024-03-23T06:42:46;13.05;;;2.78;;
23155;SDS011;11746;50.876;4.246;2024-03-23T06:49:01;8.18;;;2.30;;
23155;SDS011;11746;50.876;4.246;2024-03-23T06:51:35;7.43;;;2.70;;
23155;SDS011;11746;50.876;4.246;2024-03-23T06:54:42;9.45;;;2.75;;
23155;SDS011;11746;50.876;4.246;2024-03-23T06:57:31;11.27;;;2.85;;
23155;SDS011;11746;50.876;4.246;2024-03-23T06:59:58;12.45;;;2.58;;
23155;SDS011;11746;50.876;4.246;2024-03-23T07:02:23;11.90;;;2.45;;
23155;SDS011;11746;50.876;4.246;2024-03-23T07:04:51;8.45;;;2.05;;
23155;SDS011;11746;50.876;4.246;2024-03-23T07:07:16;6.35;;;1.60;;
23155;SDS011;11746;50.876;4.246;2024-03-23T07:09:42;5.10;;;1.70;;
23155;SDS011;11746;50.876;4.246;2024-03-23T07:12:08;6.28;;;1.60;;
23155;SDS011;11746;50.876;4.246;2024-03-23T07:14:33;8.80;;;1.73;;
23155;SDS011;11746;50.876;4.246;2024-03-23T07:16:59;8.05;;;2.00;;
23155;SDS011;11746;50.876;4.246;2024-03-23T07:19:25;7.00;;;1.83;;
23155;SDS011;11746;50.876;4.246;2024-03-23T07:21:51;12.13;;;2.53;;
23155;SDS011;11746;50.876;4.246;2024-03-23T07:24:16;13.73;;;2.35;;
23155;SDS011;11746;50.876;4.246;2024-03-23T07:26:42;11.77;;;2.58;;
23155;SDS011;11746;50.876;4.246;2024-03-23T07:29:12;12.73;;;2.70;;
23155;SDS011;11746;50.876;4.246;2024-03-23T07:31:44;7.15;;;2.50;;
23155;SDS011;11746;50.876;4.246;2024-03-23T07:34:10;12.23;;;3.15;;
23155;SDS011;11746;50.876;4.246;2024-03-23T07:36:38;9.93;;;2.60;;
23155;SDS011;11746;50.876;4.246;2024-03-23T07:39:18;11.00;;;2.72;;
23155;SDS011;11746;50.876;4.246;2024-03-23T07:41:48;15.85;;;4.00;;
23155;SDS011;11746;50.876;4.246;2024-03-23T07:45:14;12.93;;;2.90;;
23155;SDS011;11746;50.876;4.246;2024-03-23T07:47:53;10.85;;;2.72;;
23155;SDS011;11746;50.876;4.246;2024-03-23T07:50:20;14.55;;;2.85;;
23155;SDS011;11746;50.876;4.246;2024-03-23T07:53:07;9.77;;;2.67;;
23155;SDS011;11746;50.876;4.246;2024-03-23T07:56:28;8.73;;;2.63;;
23155;SDS011;11746;50.876;4.246;2024-03-23T07:59:33;12.48;;;2.85;;
23155;SDS011;11746;50.876;4.246;2024-03-23T08:02:38;10.63;;;3.08;;
23155;SDS011;11746;50.876;4.246;2024-03-23T08:05:20;9.20;;;2.67;;
23155;SDS011;11746;50.876;4.246;2024-03-23T08:07:51;8.88;;;2.67;;
23155;SDS011;11746;50.876;4.246;2024-03-23T08:10:17;11.52;;;2.85;;
23155;SDS011;11746;50.876;4.246;2024-03-23T08:12:45;8.65;;;2.50;;
23155;SDS011;11746;50.876;4.246;2024-03-23T08:15:45;11.63;;;2.47;;
23155;SDS011;11746;50.876;4.246;2024-03-23T08:18:24;9.63;;;2.88;;
23155;SDS011;11746;50.876;4.246;2024-03-23T08:21:01;7.93;;;2.40;;
23155;SDS011;11746;50.876;4.246;2024-03-23T08:23:59;9.88;;;2.47;;
23155;SDS011;11746;50.876;4.246;2024-03-23T08:26:48;7.18;;;2.15;;
23155;SDS011;11746;50.876;4.246;2024-03-23T08:29:25;14.68;;;2.70;;
23155;SDS011;11746;50.876;4.246;2024-03-23T08:32:02;12.80;;;2.28;;
23155;SDS011;11746;50.876;4.246;2024-03-23T08:34:28;9.43;;;2.30;;
23155;SDS011;11746;50.876;4.246;2024-03-23T08:37:02;13.55;;;2.60;;
23155;SDS011;11746;50.876;4.246;2024-03-23T08:40:24;5.95;;;1.90;;
23155;SDS011;11746;50.876;4.246;2024-03-23T08:43:25;10.90;;;2.15;;
23155;SDS011;11746;50.876;4.246;2024-03-23T08:46:11;9.57;;;2.47;;
23155;SDS011;11746;50.876;4.246;2024-03-23T08:48:46;9.75;;;2.40;;
23155;SDS011;11746;50.876;4.246;2024-03-23T08:51:18;10.98;;;2.30;;
23155;SDS011;11746;50.876;4.246;2024-03-23T08:54:50;6.82;;;2.10;;
23155;SDS011;11746;50.876;4.246;2024-03-23T08:57:26;11.63;;;2.08;;
23155;SDS011;11746;50.876;4.246;2024-03-23T09:00:30;13.90;;;2.50;;
23155;SDS011;11746;50.876;4.246;2024-03-23T09:03:25;10.57;;;2.03;;
23155;SDS011;11746;50.876;4.246;2024-03-23T09:06:43;6.63;;;1.80;;
23155;SDS011;11746;50.876;4.246;2024-03-23T09:09:09;7.65;;;2.22;;
23155;SDS011;11746;50.876;4.246;2024-03-23T09:11:36;7.80;;;2.05;;
23155;SDS011;11746;50.876;4.246;2024-03-23T09:14:41;10.98;;;2.30;;
23155;SDS011;11746;50.876;4.246;2024-03-23T09:17:15;9.10;;;2.97;;
23155;SDS011;11746;50.876;4.246;2024-03-23T09:19:46;8.65;;;2.33;;
23155;SDS011;11746;50.876;4.246;2024-03-23T09:22:12;11.18;;;2.45;;
23155;SDS011;11746;50.876;4.246;2024-03-23T09:24:38;10.00;;;2.45;;
23155;SDS011;11746;50.876;4.246;2024-03-23T09:27:05;11.32;;;2.45;;
23155;SDS011;11746;50.876;4.246;2024-03-23T09:29:39;10.77;;;2.67;;
23155;SDS011;11746;50.876;4.246;2024-03-23T09:32:05;11.82;;;2.83;;
23155;SDS011;11746;50.876;4.246;2024-03-23T09:34:45;7.75;;;2.40;;
23155;SDS011;11746;50.876;4.246;2024-03-23T09:37:12;10.48;;;2.67;;
23155;SDS011;11746;50.876;4.246;2024-03-23T09:39:45;7.85;;;3.03;;
23155;SDS011;11746;50.876;4.246;2024-03-23T09:42:10;8.32;;;2.67;;
23155;SDS011;11746;50.876;4.246;2024-03-23T09:44:42;6.70;;;2.67;;
23155;SDS011;11746;50.876;4.246;2024-03-23T09:47:09;6.93;;;3.10;;
23155;SDS011;11746;50.876;4.246;2024-03-23T09:49:35;10.00;;;2.80;;
23155;SDS011;11746;50.876;4.246;2024-03-23T09:52:03;9.25;;;2.88;;
23155;SDS011;11746;50.876;4.246;2024-03-23T09:54:29;5.95;;;2.45;;
23155;SDS011;11746;50.876;4.246;2024-03-23T09:56:55;10.90;;;3.28;;
23155;SDS011;11746;50.876;4.246;2024-03-23T09:59:20;7.05;;;2.33;;
23155;SDS011;11746;50.876;4.246;2024-03-23T10:01:46;9.88;;;3.13;;
23155;SDS011;11746;50.876;4.246;2024-03-23T10:07:13;11.23;;;2.92;;
23155;SDS011;11746;50.876;4.246;2024-03-23T10:09:40;4.90;;;2.20;;
23155;SDS011;11746;50.876;4.246;2024-03-23T10:12:09;9.93;;;2.90;;
23155;SDS011;11746;50.876;4.246;2024-03-23T10:14:41;8.02;;;2.60;;
23155;SDS011;11746;50.876;4.246;2024-03-23T10:17:17;4.00;;;2.17;;
23155;SDS011;11746;50.876;4.246;2024-03-23T10:19:46;10.77;;;2.78;;
23155;SDS011;11746;50.876;4.246;2024-03-23T10:22:16;7.18;;;2.30;;
23155;SDS011;11746;50.876;4.246;2024-03-23T10:24:43;9.23;;;2.63;;
23155;SDS011;11746;50.876;4.246;2024-03-23T10:27:09;7.55;;;2.10;;
23155;SDS011;11746;50.876;4.246;2024-03-23T10:29:40;6.88;;;1.73;;
23155;SDS011;11746;50.876;4.246;2024-03-23T10:32:08;9.88;;;2.00;;
23155;SDS011;11746;50.876;4.246;2024-03-23T10:34:35;6.43;;;2.10;;
23155;SDS011;11746;50.876;4.246;2024-03-23T10:37:04;9.55;;;1.90;;
23155;SDS011;11746;50.876;4.246;2024-03-23T10:39:36;5.88;;;1.67;;
23155;SDS011;11746;50.876;4.246;2024-03-23T10:42:08;9.43;;;1.85;;
23155;SDS011;11746;50.876;4.246;2024-03-23T10:44:37;8.23;;;1.73;;
23155;SDS011;11746;50.876;4.246;2024-03-23T10:47:03;6.25;;;1.63;;
23155;SDS011;11746;50.876;4.246;2024-03-23T10:49:36;7.30;;;1.77;;
23155;SDS011;11746;50.876;4.246;2024-03-23T10:52:03;7.47;;;1.38;;
23155;SDS011;11746;50.876;4.246;2024-03-23T10:54:30;6.55;;;1.50;;
23155;SDS011;11746;50.876;4.246;2024-03-23T10:57:11;6.25;;;1.85;;
23155;SDS011;11746;50.876;4.246;2024-03-23T10:59:42;5.10;;;1.20;;
23155;SDS011;11746;50.876;4.246;2024-03-23T11:02:18;3.25;;;1.00;;
23155;SDS011;11746;50.876;4.246;2024-03-23T11:04:47;8.88;;;1.55;;
23155;SDS011;11746;50.876;4.246;2024-03-23T11:07:32;4.88;;;1.10;;
23155;SDS011;11746;50.876;4.246;2024-03-23T11:09:58;7.68;;;1.33;;
23155;SDS011;11746;50.876;4.246;2024-03-23T11:12:28;2.60;;;0.85;;
23155;SDS011;11746;50.876;4.246;2024-03-23T11:15:19;3.13;;;0.98;;
23155;SDS011;11746;50.876;4.246;2024-03-23T11:18:04;4.07;;;1.20;;
23155;SDS011;11746;50.876;4.246;2024-03-23T11:20:35;5.97;;;1.20;;
23155;SDS011;11746;50.876;4.246;2024-03-23T11:23:04;5.55;;;1.58;;
23155;SDS011;11746;50.876;4.246;2024-03-23T11:26:09;5.15;;;1.00;;
23155;SDS011;11746;50.876;4.246;2024-03-23T11:32:25;6.90;;;1.00;;
23155;SDS011;11746;50.876;4.246;2024-03-23T11:38:15;4.95;;;1.10;;
23155;SDS011;11746;50.876;4.246;2024-03-23T11:41:02;13.20;;;1.38;;
23155;SDS011;11746;50.876;4.246;2024-03-23T11:43:28;3.40;;;1.08;;
23155;SDS011;11746;50.876;4.246;2024-03-23T11:45:54;5.35;;;1.40;;
23155;SDS011;11746;50.876;4.246;2024-03-23T11:48:24;3.53;;;1.08;;
23155;SDS011;11746;50.876;4.246;2024-03-23T11:50:57;4.72;;;1.10;;
23155;SDS011;11746;50.876;4.246;2024-03-23T11:53:23;5.45;;;1.33;;
23155;SDS011;11746;50.876;4.246;2024-03-23T11:55:57;6.47;;;1.17;;
23155;SDS011;11746;50.876;4.246;2024-03-23T12:05:13;6.57;;;1.20;;
23155;SDS011;11746;50.876;4.246;2024-03-23T12:07:42;5.70;;;1.23;;
23155;SDS011;11746;50.876;4.246;2024-03-23T12:10:08;4.97;;;1.10;;
23155;SDS011;11746;50.876;4.246;2024-03-23T12:12:34;3.28;;;0.90;;
23155;SDS011;11746;50.876;4.246;2024-03-23T12:15:06;2.53;;;1.42;;
23155;SDS011;11746;50.876;4.246;2024-03-23T12:17:36;3.72;;;1.08;;
23155;SDS011;11746;50.876;4.246;2024-03-23T12:20:02;4.03;;;0.60;;
23155;SDS011;11746;50.876;4.246;2024-03-23T12:22:30;3.15;;;0.75;;
23155;SDS011;11746;50.876;4.246;2024-03-23T12:24:56;2.85;;;0.60;;
23155;SDS011;11746;50.876;4.246;2024-03-23T12:27:22;4.38;;;1.35;;
23155;SDS011;11746;50.876;4.246;2024-03-23T12:29:50;2.13;;;0.80;;
23155;SDS011;11746;50.876;4.246;2024-03-23T12:32:16;3.33;;;1.05;;
23155;SDS011;11746;50.876;4.246;2024-03-23T12:34:41;5.20;;;1.20;;
23155;SDS011;11746;50.876;4.246;2024-03-23T12:37:07;6.43;;;1.45;;
23155;SDS011;11746;50.876;4.246;2024-03-23T12:39:35;7.38;;;1.67;;
23155;SDS011;11746;50.876;4.246;2024-03-23T12:42:01;3.90;;;1.20;;
23155;SDS011;11746;50.876;4.246;2024-03-23T12:44:31;9.75;;;1.30;;
23155;SDS011;11746;50.876;4.246;2024-03-23T12:46:58;4.05;;;1.38;;
23155;SDS011;11746;50.876;4.246;2024-03-23T12:49:27;6.68;;;1.00;;
23155;SDS011;11746;50.876;4.246;2024-03-23T12:51:55;6.00;;;1.20;;
23155;SDS011;11746;50.876;4.246;2024-03-23T12:54:24;8.00;;;1.17;;
23155;SDS011;11746;50.876;4.246;2024-03-23T12:56:50;3.83;;;1.20;;
23155;SDS011;11746;50.876;4.246;2024-03-23T12:59:16;4.22;;;1.15;;
23155;SDS011;11746;50.876;4.246;2024-03-23T13:01:43;5.35;;;0.95;;
23155;SDS011;11746;50.876;4.246;2024-03-23T13:04:09;3.58;;;0.80;;
23155;SDS011;11746;50.876;4.246;2024-03-23T13:06:37;3.83;;;1.00;;
23155;SDS011;11746;50.876;4.246;2024-03-23T13:09:03;7.32;;;0.80;;
23155;SDS011;11746;50.876;4.246;2024-03-23T13:11:29;3.72;;;1.35;;
23155;SDS011;11746;50.876;4.246;2024-03-23T13:13:55;3.40;;;0.98;;
23155;SDS011;11746;50.876;4.246;2024-03-23T13:16:23;3.42;;;0.80;;
23155;SDS011;11746;50.876;4.246;2024-03-23T13:18:49;5.80;;;1.10;;
23155;SDS011;11746;50.876;4.246;2024-03-23T13:21:15;4.00;;;0.90;;
23155;SDS011;11746;50.876;4.246;2024-03-23T13:23:41;3.10;;;0.85;;
23155;SDS011;11746;50.876;4.246;2024-03-23T13:26:08;4.15;;;0.98;;
23155;SDS011;11746;50.876;4.246;2024-03-23T13:28:36;2.72;;;0.80;;
23155;SDS011;11746;50.876;4.246;2024-03-23T13:31:02;2.83;;;0.93;;
23155;SDS011;11746;50.876;4.246;2024-03-23T13:33:29;5.07;;;1.08;;
23155;SDS011;11746;50.876;4.246;2024-03-23T13:35:57;8.93;;;1.15;;
23155;SDS011;11746;50.876;4.246;2024-03-23T13:38:29;3.15;;;1.02;;
23155;SDS011;11746;50.876;4.246;2024-03-23T13:41:07;2.37;;;0.60;;
23155;SDS011;11746;50.876;4.246;2024-03-23T13:43:33;9.30;;;1.55;;
23155;SDS011;11746;50.876;4.246;2024-03-23T13:46:01;2.78;;;1.25;;
23155;SDS011;11746;50.876;4.246;2024-03-23T13:48:29;3.70;;;1.00;;
23155;SDS011;11746;50.876;4.246;2024-03-23T13:51:02;5.25;;;1.10;;
23155;SDS011;11746;50.876;4.246;2024-03-23T13:53:29;4.37;;;1.00;;
23155;SDS011;11746;50.876;4.246;2024-03-23T13:55:55;2.97;;;0.90;;
23155;SDS011;11746;50.876;4.246;2024-03-23T13:58:21;3.72;;;0.82;;
23155;SDS011;11746;50.876;4.246;2024-03-23T14:00:48;2.45;;;0.88;;
23155;SDS011;11746;50.876;4.246;2024-03-23T14:03:14;5.22;;;1.17;;
23155;SDS011;11746;50.876;4.246;2024-03-23T14:05:40;4.32;;;1.10;;
23155;SDS011;11746;50.876;4.246;2024-03-23T14:08:06;7.40;;;1.30;;
23155;SDS011;11746;50.876;4.246;2024-03-23T14:10:36;5.60;;;1.00;;
23155;SDS011;11746;50.876;4.246;2024-03-23T14:13:05;4.93;;;1.10;;
23155;SDS011;11746;50.876;4.246;2024-03-23T14:15:30;5.28;;;1.27;;
23155;SDS011;11746;50.876;4.246;2024-03-23T14:17:57;6.50;;;1.10;;
23155;SDS011;11746;50.876;4.246;2024-03-23T14:20:23;8.82;;;1.40;;
23155;SDS011;11746;50.876;4.246;2024-03-23T14:22:49;5.75;;;1.10;;
23155;SDS011;11746;50.876;4.246;2024-03-23T14:25:17;3.90;;;1.00;;
23155;SDS011;11746;50.876;4.246;2024-03-23T14:27:48;6.43;;;1.40;;
23155;SDS011;11746;50.876;4.246;2024-03-23T14:30:14;4.20;;;1.05;;
23155;SDS011;11746;50.876;4.246;2024-03-23T14:32:40;6.10;;;1.40;;
23155;SDS011;11746;50.876;4.246;2024-03-23T14:35:06;6.53;;;0.98;;
23155;SDS011;11746;50.876;4.246;2024-03-23T14:37:35;4.70;;;1.10;;
23155;SDS011;11746;50.876;4.246;2024-03-23T14:40:02;4.72;;;0.90;;
23155;SDS011;11746;50.876;4.246;2024-03-23T14:42:30;3.25;;;1.02;;
23155;SDS011;11746;50.876;4.246;2024-03-23T14:44:58;3.28;;;0.93;;
23155;SDS011;11746;50.876;4.246;2024-03-23T14:47:24;6.32;;;1.05;;
23155;SDS011;11746;50.876;4.246;2024-03-23T14:49:49;7.32;;;1.10;;
23155;SDS011;11746;50.876;4.246;2024-03-23T14:52:18;3.03;;;1.02;;
23155;SDS011;11746;50.876;4.246;2024-03-23T14:54:45;6.55;;;1.33;;
23155;SDS011;11746;50.876;4.246;2024-03-23T14:57:12;4.80;;;1.00;;
23155;SDS011;11746;50.876;4.246;2024-03-23T14:59:38;5.85;;;1.15;;
23155;SDS011;11746;50.876;4.246;2024-03-23T15:05:21;4.53;;;1.20;;
23155;SDS011;11746;50.876;4.246;2024-03-23T15:08:14;3.67;;;1.38;;
23155;SDS011;11746;50.876;4.246;2024-03-23T15:10:59;5.03;;;1.20;;
23155;SDS011;11746;50.876;4.246;2024-03-23T15:13:30;5.57;;;0.88;;
23155;SDS011;11746;50.876;4.246;2024-03-23T15:16:03;7.38;;;1.25;;
23155;SDS011;11746;50.876;4.246;2024-03-23T15:18:41;5.88;;;1.15;;
23155;SDS011;11746;50.876;4.246;2024-03-23T15:21:08;7.07;;;1.10;;
23155;SDS011;11746;50.876;4.246;2024-03-23T15:23:36;8.80;;;1.30;;
23155;SDS011;11746;50.876;4.246;2024-03-23T15:26:06;8.15;;;1.75;;
23155;SDS011;11746;50.876;4.246;2024-03-23T15:28:31;7.13;;;1.63;;
23155;SDS011;11746;50.876;4.246;2024-03-23T15:31:04;3.17;;;1.10;;
23155;SDS011;11746;50.876;4.246;2024-03-23T15:33:35;6.25;;;1.60;;
23155;SDS011;11746;50.876;4.246;2024-03-23T15:36:04;6.72;;;1.42;;
23155;SDS011;11746;50.876;4.246;2024-03-23T15:38:33;4.50;;;1.13;;
23155;SDS011;11746;50.876;4.246;2024-03-23T15:41:00;7.13;;;2.10;;
23155;SDS011;11746;50.876;4.246;2024-03-23T15:43:31;5.03;;;1.20;;
23155;SDS011;11746;50.876;4.246;2024-03-23T15:46:06;4.40;;;2.05;;
23155;SDS011;11746;50.876;4.246;2024-03-23T15:48:33;4.70;;;1.30;;
23155;SDS011;11746;50.876;4.246;2024-03-23T15:51:06;7.60;;;2.08;;
23155;SDS011;11746;50.876;4.246;2024-03-23T15:54:06;5.35;;;1.40;;
23155;SDS011;11746;50.876;4.246;2024-03-23T15:56:33;3.10;;;1.05;;
23155;SDS011;11746;50.876;4.246;2024-03-23T15:59:00;7.43;;;1.40;;
23155;SDS011;11746;50.876;4.246;2024-03-23T16:01:31;4.47;;;1.58;;
23155;SDS011;11746;50.876;4.246;2024-03-23T16:04:06;7.32;;;1.33;;
23155;SDS011;11746;50.876;4.246;2024-03-23T16:06:34;4.47;;;1.10;;
23155;SDS011;11746;50.876;4.246;2024-03-23T16:09:01;4.53;;;1.15;;
23155;SDS011;11746;50.876;4.246;2024-03-23T16:11:26;8.25;;;1.55;;
23155;SDS011;11746;50.876;4.246;2024-03-23T16:13:53;7.70;;;1.58;;
23155;SDS011;11746;50.876;4.246;2024-03-23T16:16:21;4.68;;;1.40;;
23155;SDS011;11746;50.876;4.246;2024-03-23T16:18:48;3.53;;;1.00;;
23155;SDS011;11746;50.876;4.246;2024-03-23T16:21:14;6.40;;;1.50;;